createdAt,value
2023-04-26T00:02:27.356Z,2.20
2023-04-26T00:04:58.623Z,3.00
2023-04-26T00:07:28.611Z,2.30
2023-04-26T00:09:56.830Z,2.23
2023-04-26T00:12:25.021Z,2.50
2023-04-26T00:14:53.261Z,2.80
2023-04-26T00:17:21.421Z,2.50
2023-04-26T00:19:51.062Z,2.47
2023-04-26T00:22:19.234Z,2.80
2023-04-26T00:24:47.411Z,2.50
2023-04-26T00:27:15.682Z,2.53
2023-04-26T00:29:43.847Z,2.73
2023-04-26T00:32:12.077Z,2.60
2023-04-26T00:34:40.407Z,2.27
2023-04-26T00:37:09.949Z,2.20
2023-04-26T00:39:38.141Z,2.77
2023-04-26T00:42:06.440Z,2.50
2023-04-26T00:44:34.594Z,2.97
2023-04-26T00:47:03.229Z,2.77
2023-04-26T00:49:31.525Z,2.60
2023-04-26T00:51:59.879Z,3.00
2023-04-26T00:54:30.712Z,2.67
2023-04-26T00:56:59.483Z,3.13
2023-04-26T00:59:28.086Z,2.93
2023-04-26T01:01:56.388Z,3.40
2023-04-26T01:04:27.244Z,3.07
2023-04-26T01:06:55.956Z,3.07
2023-04-26T01:09:24.168Z,3.30
2023-04-26T01:11:56.617Z,3.20
2023-04-26T01:14:24.968Z,3.43
2023-04-26T01:16:53.264Z,3.33
2023-04-26T01:19:22.078Z,3.10
2023-04-26T01:21:50.438Z,3.23
2023-04-26T01:24:19.956Z,3.10
2023-04-26T01:26:49.043Z,3.50
2023-04-26T01:29:17.666Z,3.70
2023-04-26T01:31:45.910Z,2.87
2023-04-26T01:34:14.083Z,3.60
2023-04-26T01:36:42.465Z,4.10
2023-04-26T01:39:10.648Z,3.33
2023-04-26T01:41:40.172Z,3.50
2023-04-26T01:44:08.347Z,3.97
2023-04-26T01:46:36.602Z,3.73
2023-04-26T01:49:04.902Z,3.50
2023-04-26T01:51:34.176Z,3.80
2023-04-26T01:54:02.349Z,3.70
2023-04-26T01:56:30.707Z,4.87
2023-04-26T01:59:00.253Z,4.00
2023-04-26T02:01:28.485Z,3.50
2023-04-26T02:03:56.673Z,3.87
2023-04-26T02:06:24.821Z,3.50
2023-04-26T02:08:54.072Z,4.37
2023-04-26T02:11:23.066Z,4.07
2023-04-26T02:13:51.247Z,4.20
2023-04-26T02:16:21.318Z,3.40
2023-04-26T02:18:50.642Z,4.37
2023-04-26T02:21:19.213Z,4.17
2023-04-26T02:23:47.473Z,3.93
2023-04-26T02:26:15.954Z,4.60
2023-04-26T02:28:44.124Z,4.57
2023-04-26T02:31:12.424Z,3.83
2023-04-26T02:33:41.999Z,4.77
2023-04-26T02:36:10.335Z,4.37
2023-04-26T02:38:38.626Z,5.00
2023-04-26T02:41:06.905Z,4.87
2023-04-26T02:43:35.161Z,5.20
2023-04-26T02:46:03.345Z,4.70
2023-04-26T02:48:31.496Z,5.23
2023-04-26T02:51:01.098Z,5.03
2023-04-26T02:53:29.264Z,5.13
2023-04-26T02:55:57.429Z,5.10
2023-04-26T02:58:25.584Z,5.20
2023-04-26T03:00:54.633Z,4.67
2023-04-26T03:03:23.352Z,4.43
2023-04-26T03:05:51.724Z,4.97
2023-04-26T03:08:21.224Z,5.27
2023-04-26T03:10:49.408Z,5.00
2023-04-26T03:13:17.584Z,4.63
2023-04-26T03:15:46.894Z,4.77
2023-04-26T03:18:15.089Z,4.40
2023-04-26T03:20:43.604Z,4.87
2023-04-26T03:23:11.756Z,4.90
2023-04-26T03:25:41.503Z,4.70
2023-04-26T03:28:09.685Z,5.17
2023-04-26T03:30:38.205Z,5.10
2023-04-26T03:33:06.403Z,4.77
2023-04-26T03:35:34.598Z,4.80
2023-04-26T03:38:02.760Z,4.57
2023-04-26T03:40:30.927Z,4.80
2023-04-26T03:43:00.440Z,4.47
2023-04-26T03:45:28.605Z,5.27
2023-04-26T03:47:56.863Z,5.17
2023-04-26T03:50:25.061Z,5.37
2023-04-26T03:52:53.293Z,5.27
2023-04-26T03:55:21.478Z,5.80
2023-04-26T03:57:49.668Z,5.60
2023-04-26T04:00:19.256Z,5.33
2023-04-26T04:02:47.888Z,5.40
2023-04-26T04:05:16.233Z,5.33
2023-04-26T04:07:44.537Z,5.43
2023-04-26T04:10:13.001Z,5.93
2023-04-26T04:12:41.183Z,5.57
2023-04-26T04:15:09.961Z,5.53
2023-04-26T04:17:39.543Z,5.77
2023-04-26T04:20:08.840Z,5.63
2023-04-26T04:22:38.948Z,5.80
2023-04-26T04:25:07.692Z,6.00
2023-04-26T04:27:36.831Z,6.37
2023-04-26T04:30:07.377Z,5.67
2023-04-26T04:32:35.545Z,5.97
2023-04-26T04:35:05.627Z,5.60
2023-04-26T04:37:34.770Z,6.30
2023-04-26T04:40:03.122Z,6.53
2023-04-26T04:42:32.169Z,5.27
2023-04-26T04:45:00.494Z,6.23
2023-04-26T04:47:28.767Z,6.23
2023-04-26T04:49:57.023Z,6.43
2023-04-26T04:52:26.546Z,6.23
2023-04-26T04:54:54.759Z,6.43
2023-04-26T04:57:22.945Z,6.20
2023-04-26T04:59:51.163Z,6.00
2023-04-26T05:02:19.500Z,5.77
2023-04-26T05:04:48.091Z,5.23
2023-04-26T05:07:18.200Z,6.07
2023-04-26T05:09:47.809Z,5.87
2023-04-26T05:12:16.068Z,5.30
2023-04-26T05:14:44.220Z,5.60
2023-04-26T05:17:12.385Z,5.20
2023-04-26T05:19:40.547Z,5.40
2023-04-26T05:22:08.764Z,4.97
2023-04-26T05:24:36.911Z,4.97
2023-04-26T05:27:06.641Z,5.03
2023-04-26T05:29:34.830Z,5.60
2023-04-26T05:32:03.830Z,5.47
2023-04-26T05:34:32.071Z,5.67
2023-04-26T05:37:00.451Z,6.10
2023-04-26T05:39:28.685Z,5.40
2023-04-26T05:41:56.829Z,5.27
2023-04-26T05:44:26.421Z,5.13
2023-04-26T05:46:54.929Z,5.87
2023-04-26T05:49:23.113Z,5.43
2023-04-26T05:51:51.311Z,5.77
2023-04-26T05:54:19.469Z,5.00
2023-04-26T05:56:47.650Z,5.10
2023-04-26T05:59:15.851Z,4.47
2023-04-26T06:01:45.389Z,4.47
2023-04-26T06:04:13.816Z,4.30
2023-04-26T06:06:42.478Z,4.20
2023-04-26T06:09:10.646Z,4.33
2023-04-26T06:11:38.816Z,4.50
2023-04-26T06:14:10.459Z,4.53
2023-04-26T06:16:46.704Z,5.00
2023-04-26T06:19:14.900Z,4.47
2023-04-26T06:21:43.073Z,4.10
2023-04-26T06:24:11.565Z,2.93
2023-04-26T06:26:39.773Z,2.97
2023-04-26T06:29:07.987Z,2.90
2023-04-26T06:31:36.250Z,3.43
2023-04-26T06:34:06.522Z,2.90
2023-04-26T06:36:34.965Z,3.13
2023-04-26T06:39:03.905Z,2.77
2023-04-26T06:41:32.166Z,3.10
2023-04-26T06:44:00.358Z,2.33
2023-04-26T06:46:28.535Z,2.70
2023-04-26T06:48:57.024Z,2.43
2023-04-26T06:51:26.884Z,2.30
2023-04-26T06:53:55.213Z,2.73
2023-04-26T06:56:23.602Z,2.53
2023-04-26T06:59:02.002Z,2.37
2023-04-26T07:01:33.569Z,2.07
2023-04-26T07:04:03.226Z,2.10
2023-04-26T07:06:33.200Z,2.40
2023-04-26T07:09:02.546Z,2.97
2023-04-26T07:11:31.117Z,2.67
2023-04-26T07:13:59.752Z,2.67
2023-04-26T07:16:28.544Z,2.57
2023-04-26T07:18:58.318Z,2.90
2023-04-26T07:21:26.796Z,2.90
2023-04-26T07:23:56.954Z,2.43
2023-04-26T07:26:26.576Z,1.90
2023-04-26T07:28:55.007Z,2.23
2023-04-26T07:31:23.405Z,2.50
2023-04-26T07:33:52.164Z,3.27
2023-04-26T07:36:22.372Z,3.10
2023-04-26T07:38:51.707Z,3.83
2023-04-26T07:41:21.336Z,2.80
2023-04-26T07:43:49.540Z,4.40
2023-04-26T07:46:17.817Z,3.80
2023-04-26T07:48:46.226Z,3.67
2023-04-26T07:51:14.753Z,3.47
2023-04-26T07:53:43.084Z,3.17
2023-04-26T07:56:11.395Z,3.93
2023-04-26T07:58:41.414Z,2.90
2023-04-26T08:01:11.580Z,2.97
2023-04-26T08:03:40.000Z,3.73
2023-04-26T08:06:09.682Z,3.67
2023-04-26T08:08:42.803Z,3.23
2023-04-26T08:11:11.098Z,3.63
2023-04-26T08:13:40.704Z,3.37
2023-04-26T08:16:09.011Z,3.37
2023-04-26T08:18:37.237Z,3.40
2023-04-26T08:21:05.391Z,3.23
2023-04-26T08:23:35.896Z,3.30
2023-04-26T08:26:04.089Z,3.23
2023-04-26T08:28:32.745Z,3.13
2023-04-26T08:31:02.331Z,2.53
2023-04-26T08:33:30.514Z,3.10
2023-04-26T08:36:01.049Z,2.70
2023-04-26T08:38:29.950Z,3.13
2023-04-26T08:41:01.807Z,2.93
2023-04-26T08:43:30.410Z,2.63
2023-04-26T08:46:00.558Z,2.60
2023-04-26T08:48:33.740Z,2.90
2023-04-26T08:51:03.448Z,2.73
2023-04-26T08:53:32.140Z,2.80
2023-04-26T08:56:01.088Z,2.40
2023-04-26T08:58:29.015Z,2.67
2023-04-26T09:00:57.116Z,2.80
2023-04-26T09:03:26.400Z,2.40
2023-04-26T09:05:56.323Z,2.60
2023-04-26T09:08:24.488Z,2.00
2023-04-26T09:10:52.381Z,2.40
2023-04-26T09:13:20.293Z,2.30
2023-04-26T09:15:49.968Z,2.93
2023-04-26T09:18:18.988Z,2.30
2023-04-26T09:20:47.958Z,2.30
2023-04-26T09:23:19.165Z,2.40
2023-04-26T09:25:47.297Z,2.30
2023-04-26T09:28:22.352Z,2.50
2023-04-26T09:30:50.843Z,2.10
2023-04-26T09:33:19.502Z,2.27
2023-04-26T09:35:47.798Z,2.33
2023-04-26T09:38:16.648Z,2.27
2023-04-26T09:40:47.113Z,2.10
2023-04-26T09:43:16.241Z,1.80
2023-04-26T09:45:49.424Z,2.20
2023-04-26T09:48:18.657Z,2.20
2023-04-26T09:50:47.271Z,2.50
2023-04-26T09:53:27.461Z,2.00
2023-04-26T09:55:57.662Z,2.53
2023-04-26T09:58:26.667Z,2.57
2023-04-26T10:00:54.962Z,2.53
2023-04-26T10:03:24.733Z,2.33
2023-04-26T10:05:53.456Z,2.37
2023-04-26T10:08:21.651Z,2.37
2023-04-26T10:10:50.415Z,2.60
2023-04-26T10:13:20.208Z,2.10
2023-04-26T10:15:49.215Z,2.10
2023-04-26T10:18:17.629Z,2.73
2023-04-26T10:20:47.935Z,2.37
2023-04-26T10:23:22.056Z,2.10
2023-04-26T10:25:50.520Z,1.90
2023-04-26T10:28:20.699Z,2.23
2023-04-26T10:30:58.228Z,2.07
2023-04-26T10:33:27.201Z,2.33
2023-04-26T10:36:05.718Z,2.10
2023-04-26T10:38:34.193Z,2.00
2023-04-26T10:41:21.277Z,2.30
2023-04-26T10:43:51.144Z,2.70
2023-04-26T10:46:36.332Z,2.27
2023-04-26T10:49:17.341Z,2.40
2023-04-26T10:52:03.540Z,2.20
2023-04-26T10:54:46.732Z,2.30
2023-04-26T10:57:15.773Z,2.30
2023-04-26T10:59:58.843Z,2.50
2023-04-26T11:02:42.017Z,2.63
2023-04-26T11:05:11.672Z,2.33
2023-04-26T11:07:40.000Z,2.23
2023-04-26T11:10:10.533Z,1.90
2023-04-26T11:12:38.701Z,2.93
2023-04-26T11:15:07.201Z,2.23
2023-04-26T11:17:38.705Z,2.10
2023-04-26T11:20:11.010Z,2.87
2023-04-26T11:22:42.542Z,2.30
2023-04-26T11:25:14.193Z,2.80
2023-04-26T11:27:44.610Z,2.20
2023-04-26T11:30:13.607Z,2.10
2023-04-26T11:32:41.888Z,2.40
2023-04-26T11:35:10.430Z,2.20
2023-04-26T11:37:38.679Z,2.40
2023-04-26T11:40:11.639Z,2.13
2023-04-26T11:42:40.096Z,2.60
2023-04-26T11:45:08.920Z,2.53
2023-04-26T11:47:37.289Z,2.40
2023-04-26T11:50:05.901Z,2.80
2023-04-26T11:52:34.407Z,2.47
2023-04-26T11:55:06.184Z,2.53
2023-04-26T11:57:36.535Z,2.70
2023-04-26T12:00:14.855Z,2.53
2023-04-26T12:02:46.614Z,2.60
2023-04-26T12:05:22.947Z,2.40
2023-04-26T12:07:52.508Z,2.83
2023-04-26T12:10:21.498Z,3.03
2023-04-26T12:12:51.365Z,2.60
2023-04-26T12:15:19.826Z,3.90
2023-04-26T12:17:53.566Z,2.60
2023-04-26T12:20:27.702Z,2.90
2023-04-26T12:22:59.683Z,2.60
2023-04-26T12:25:27.924Z,3.07
2023-04-26T12:27:57.649Z,2.43
2023-04-26T12:30:27.280Z,2.40
2023-04-26T12:33:00.283Z,2.80
2023-04-26T12:35:37.690Z,2.90
2023-04-26T12:38:06.101Z,3.20
2023-04-26T12:40:34.381Z,2.87
2023-04-26T12:43:03.948Z,3.00
2023-04-26T12:45:32.160Z,2.90
2023-04-26T12:48:00.425Z,3.20
2023-04-26T12:50:28.735Z,3.20
2023-04-26T12:52:57.291Z,2.97
2023-04-26T12:55:25.704Z,3.03
2023-04-26T12:57:54.301Z,2.90
2023-04-26T13:00:24.148Z,2.93
2023-04-26T13:02:52.441Z,2.97
2023-04-26T13:05:21.133Z,3.57
2023-04-26T13:07:49.338Z,3.40
2023-04-26T13:10:17.519Z,3.20
2023-04-26T13:12:45.697Z,2.97
2023-04-26T13:15:15.622Z,3.23
2023-04-26T13:17:46.967Z,3.30
2023-04-26T13:20:15.147Z,3.20
2023-04-26T13:22:43.450Z,2.80
2023-04-26T13:25:13.154Z,2.60
2023-04-26T13:27:41.068Z,2.97
2023-04-26T13:30:10.177Z,3.30
2023-04-26T13:32:38.078Z,3.30
2023-04-26T13:35:08.106Z,2.43
2023-04-26T13:37:36.128Z,3.07
2023-04-26T13:40:05.254Z,3.23
2023-04-26T13:42:33.103Z,3.20
2023-04-26T13:45:06.063Z,3.20
2023-04-26T13:47:33.939Z,3.30
2023-04-26T13:50:02.060Z,3.20
2023-04-26T13:52:31.321Z,3.00
2023-04-26T13:54:59.223Z,3.23
2023-04-26T13:57:27.067Z,2.83
2023-04-26T13:59:54.896Z,3.20
2023-04-26T14:02:24.513Z,3.57
2023-04-26T14:04:52.857Z,3.23
2023-04-26T14:07:21.065Z,3.13
2023-04-26T14:09:52.537Z,2.93
2023-04-26T14:12:20.477Z,3.07
2023-04-26T14:14:48.337Z,3.00
2023-04-26T14:17:16.198Z,2.87
2023-04-26T14:19:44.335Z,3.70
2023-04-26T14:22:13.003Z,3.53
2023-04-26T14:24:42.483Z,3.53
2023-04-26T14:27:12.232Z,3.60
2023-04-26T14:29:40.420Z,3.90
2023-04-26T14:32:08.958Z,3.93
2023-04-26T14:34:39.116Z,4.10
2023-04-26T14:37:07.592Z,3.80
2023-04-26T14:39:35.957Z,3.73
2023-04-26T14:42:04.297Z,4.10
2023-04-26T14:44:33.836Z,4.20
2023-04-26T14:47:02.039Z,3.57
2023-04-26T14:49:30.955Z,3.33
2023-04-26T14:51:59.097Z,3.73
2023-04-26T14:54:27.243Z,4.10
2023-04-26T14:56:55.412Z,3.87
2023-04-26T14:59:23.598Z,3.97
2023-04-26T15:01:53.736Z,4.00
2023-04-26T15:04:22.190Z,3.83
2023-04-26T15:06:50.457Z,4.07
2023-04-26T15:09:18.668Z,4.00
2023-04-26T15:11:46.833Z,4.60
2023-04-26T15:14:14.990Z,4.73
2023-04-26T15:16:42.852Z,4.70
2023-04-26T15:19:12.050Z,4.63
2023-04-26T15:21:40.132Z,4.73
2023-04-26T15:24:08.999Z,4.63
2023-04-26T15:26:36.839Z,5.00
2023-04-26T15:29:04.695Z,4.63
2023-04-26T15:31:32.585Z,5.03
2023-04-26T15:34:00.470Z,4.87
2023-04-26T15:36:29.631Z,5.13
2023-04-26T15:38:57.440Z,5.30
2023-04-26T15:41:25.326Z,5.07
2023-04-26T15:43:55.158Z,6.00
2023-04-26T15:46:23.224Z,5.50
2023-04-26T15:48:51.701Z,4.87
2023-04-26T15:51:19.657Z,5.47
2023-04-26T15:53:51.048Z,5.10
2023-04-26T15:56:19.179Z,5.07
2023-04-26T15:58:47.827Z,5.40
2023-04-26T16:01:16.210Z,4.93
2023-04-26T16:03:47.425Z,5.97
2023-04-26T16:06:16.003Z,5.43
2023-04-26T16:08:44.179Z,5.67
2023-04-26T16:11:13.445Z,6.40
2023-04-26T16:13:41.347Z,5.60
2023-04-26T16:16:10.592Z,5.50
2023-04-26T16:18:39.650Z,5.73
2023-04-26T16:21:09.344Z,6.03
2023-04-26T16:23:37.801Z,5.47
2023-04-26T16:26:06.065Z,5.47
2023-04-26T16:28:35.251Z,5.37
2023-04-26T16:31:03.170Z,5.33
2023-04-26T16:33:31.303Z,4.93
2023-04-26T16:35:59.135Z,5.37
2023-04-26T16:38:27.055Z,5.30
2023-04-26T16:40:57.843Z,5.00
2023-04-26T16:43:26.788Z,5.10
2023-04-26T16:46:04.095Z,5.20
2023-04-26T16:48:33.091Z,5.33
2023-04-26T16:51:01.938Z,5.27
2023-04-26T16:53:30.651Z,5.30
2023-04-26T16:55:58.667Z,5.30
2023-04-26T16:58:26.905Z,5.73
2023-04-26T17:00:54.768Z,5.17
2023-04-26T17:03:24.735Z,5.47
2023-04-26T17:05:52.916Z,5.07
2023-04-26T17:08:21.956Z,4.83
2023-04-26T17:10:49.978Z,4.80
2023-04-26T17:13:18.005Z,4.70
2023-04-26T17:15:46.090Z,5.37
2023-04-26T17:18:13.974Z,5.23
2023-04-26T17:20:43.202Z,4.53
2023-04-26T17:23:11.683Z,4.10
2023-04-26T17:25:39.544Z,4.57
2023-04-26T17:28:07.418Z,4.30
2023-04-26T17:30:35.248Z,4.33
2023-04-26T17:33:03.485Z,4.27
2023-04-26T17:35:31.409Z,3.90
2023-04-26T17:38:00.717Z,3.57
2023-04-26T17:40:28.611Z,3.73
2023-04-26T17:42:56.473Z,4.17
2023-04-26T17:45:24.517Z,4.73
2023-04-26T17:47:52.426Z,3.57
2023-04-26T17:50:21.076Z,3.70
2023-04-26T17:52:49.034Z,3.83
2023-04-26T17:55:18.517Z,3.80
2023-04-26T17:57:46.656Z,4.20
2023-04-26T18:00:15.639Z,3.90
2023-04-26T18:02:43.929Z,4.33
2023-04-26T18:05:13.302Z,3.67
2023-04-26T18:07:41.283Z,3.90
2023-04-26T18:10:10.381Z,3.17
2023-04-26T18:12:39.799Z,3.47
2023-04-26T18:15:09.000Z,3.93
2023-04-26T18:17:37.103Z,3.87
2023-04-26T18:20:05.628Z,3.97
2023-04-26T18:22:33.507Z,3.73
2023-04-26T18:25:01.422Z,4.10
2023-04-26T18:27:29.280Z,3.97
2023-04-26T18:29:58.624Z,3.67
2023-04-26T18:32:26.690Z,4.10
2023-04-26T18:34:54.592Z,4.63
2023-04-26T18:37:22.456Z,4.20
2023-04-26T18:39:50.301Z,4.30
2023-04-26T18:42:18.153Z,4.50
2023-04-26T18:44:46.003Z,3.70
2023-04-26T18:47:15.191Z,4.37
2023-04-26T18:49:43.024Z,3.93
2023-04-26T18:52:10.977Z,4.23
2023-04-26T18:54:39.328Z,4.00
2023-04-26T18:57:07.198Z,4.20
2023-04-26T18:59:35.025Z,4.10
2023-04-26T19:02:04.220Z,4.70
2023-04-26T19:04:33.664Z,4.47
2023-04-26T19:07:01.744Z,4.70
2023-04-26T19:09:35.126Z,4.37
2023-04-26T19:12:11.035Z,4.30
2023-04-26T19:14:38.832Z,4.03
2023-04-26T19:17:07.411Z,4.77
2023-04-26T19:19:36.615Z,4.30
2023-04-26T19:22:04.468Z,4.33
2023-04-26T19:24:32.358Z,4.57
2023-04-26T19:27:00.739Z,4.63
2023-04-26T19:29:28.581Z,4.67
2023-04-26T19:31:56.724Z,4.50
2023-04-26T19:34:24.780Z,4.30
2023-04-26T19:36:53.977Z,4.40
2023-04-26T19:39:23.397Z,4.13
2023-04-26T19:41:51.731Z,5.00
2023-04-26T19:44:20.254Z,4.60
2023-04-26T19:46:48.183Z,4.27
2023-04-26T19:49:16.231Z,4.20
2023-04-26T19:51:44.048Z,3.77
2023-04-26T19:54:13.249Z,4.10
2023-04-26T19:56:41.081Z,3.97
2023-04-26T19:59:09.338Z,5.30
2023-04-26T20:01:37.252Z,4.13
2023-04-26T20:04:05.350Z,4.40
2023-04-26T20:06:34.068Z,4.07
2023-04-26T20:09:01.885Z,4.27
2023-04-26T20:11:31.418Z,4.53
2023-04-26T20:13:59.244Z,4.40
2023-04-26T20:16:27.177Z,4.93
2023-04-26T20:18:55.030Z,4.33
2023-04-26T20:21:22.875Z,4.53
2023-04-26T20:23:50.710Z,4.37
2023-04-26T20:26:18.608Z,4.57
2023-04-26T20:28:49.154Z,5.13
2023-04-26T20:31:17.312Z,4.47
2023-04-26T20:33:45.442Z,4.33
2023-04-26T20:36:13.292Z,4.53
2023-04-26T20:38:41.182Z,4.20
2023-04-26T20:41:09.009Z,4.30
2023-04-26T20:43:36.812Z,4.60
2023-04-26T20:46:06.147Z,4.30
2023-04-26T20:48:34.014Z,4.60
2023-04-26T20:51:02.812Z,4.60
2023-04-26T20:53:30.958Z,3.83
2023-04-26T20:55:58.918Z,4.03
2023-04-26T20:58:26.857Z,4.50
2023-04-26T21:00:55.535Z,4.20
2023-04-26T21:03:25.193Z,4.57
2023-04-26T21:05:53.073Z,4.40
2023-04-26T21:08:20.897Z,4.30
2023-04-26T21:10:48.746Z,4.17
2023-04-26T21:13:16.588Z,4.60
2023-04-26T21:15:44.475Z,4.77
2023-04-26T21:18:12.695Z,4.40
2023-04-26T21:20:42.204Z,3.80
2023-04-26T21:23:10.639Z,4.80
2023-04-26T21:25:38.830Z,4.20
2023-04-26T21:28:06.987Z,4.40
2023-04-26T21:30:36.518Z,4.30
2023-04-26T21:33:04.745Z,4.60
2023-04-26T21:35:32.991Z,4.40
2023-04-26T21:38:02.506Z,4.03
2023-04-26T21:40:30.750Z,4.60
2023-04-26T21:43:05.328Z,3.80
2023-04-26T21:45:33.853Z,4.47
2023-04-26T21:48:02.285Z,5.20
2023-04-26T21:50:30.679Z,5.07
2023-04-26T21:52:58.834Z,4.53
2023-04-26T21:55:28.317Z,4.57
2023-04-26T21:57:56.640Z,4.07
2023-04-26T22:00:27.018Z,5.47
2023-04-26T22:02:55.471Z,4.50
2023-04-26T22:05:25.733Z,4.27
2023-04-26T22:07:54.050Z,4.50
2023-04-26T22:10:22.278Z,4.50
2023-04-26T22:12:51.788Z,4.37
2023-04-26T22:15:19.965Z,4.77
2023-04-26T22:17:48.192Z,4.70
2023-04-26T22:20:16.459Z,4.50
2023-04-26T22:22:44.618Z,4.57
2023-04-26T22:25:12.783Z,4.43
2023-04-26T22:27:41.087Z,4.70
2023-04-26T22:30:24.033Z,4.77
2023-04-26T22:32:54.724Z,4.90
2023-04-26T22:35:23.631Z,4.60
2023-04-26T22:37:51.877Z,4.27
2023-04-26T22:40:20.361Z,5.20
2023-04-26T22:42:48.538Z,5.00
2023-04-26T22:45:18.145Z,5.03
2023-04-26T22:47:46.391Z,4.93
2023-04-26T22:50:14.855Z,4.50
2023-04-26T22:52:43.008Z,4.33
2023-04-26T22:55:11.367Z,4.60
2023-04-26T22:57:39.560Z,4.83
2023-04-26T23:00:12.277Z,5.37
2023-04-26T23:02:42.012Z,4.53
2023-04-26T23:05:10.668Z,4.97
2023-04-26T23:07:38.859Z,4.40
2023-04-26T23:10:08.560Z,4.87
2023-04-26T23:12:37.061Z,4.37
2023-04-26T23:15:06.156Z,4.77
2023-04-26T23:17:34.614Z,4.73
2023-04-26T23:20:11.726Z,4.80
2023-04-26T23:22:40.113Z,4.50
2023-04-26T23:25:08.956Z,4.57
2023-04-26T23:27:37.316Z,5.10
2023-04-26T23:30:05.723Z,4.77
2023-04-26T23:32:33.963Z,4.33
2023-04-26T23:35:03.544Z,4.10
2023-04-26T23:37:31.724Z,5.27
2023-04-26T23:39:59.973Z,4.90
2023-04-26T23:42:28.162Z,4.70
2023-04-26T23:44:56.388Z,4.33
2023-04-26T23:47:24.570Z,5.00
2023-04-26T23:49:52.838Z,4.77
2023-04-26T23:52:22.340Z,5.47
2023-04-26T23:54:50.504Z,5.00
2023-04-26T23:57:18.701Z,4.80
2023-04-26T23:59:46.880Z,4.67
